createdAt,value
2019-02-28T00:01:30.694Z,6.10
2019-02-28T00:04:01.414Z,6.00
2019-02-28T00:06:32.025Z,5.90
2019-02-28T00:09:02.637Z,5.80
2019-02-28T00:11:33.289Z,5.80
2019-02-28T00:14:03.822Z,5.70
2019-02-28T00:16:35.675Z,5.60
2019-02-28T00:19:06.851Z,5.50
2019-02-28T00:21:40.534Z,5.60
2019-02-28T00:24:09.824Z,5.70
2019-02-28T00:26:46.437Z,5.80
2019-02-28T00:29:12.744Z,5.80
2019-02-28T00:31:43.363Z,5.80
2019-02-28T00:34:14.003Z,5.90
2019-02-28T00:36:45.249Z,6.00
2019-02-28T00:39:15.866Z,5.90
2019-02-28T00:41:46.429Z,5.90
2019-02-28T00:44:17.499Z,5.80
2019-02-28T00:46:48.141Z,5.80
2019-02-28T00:49:19.162Z,5.70
2019-02-28T00:51:49.722Z,5.50
2019-02-28T00:54:20.991Z,5.70
2019-02-28T00:56:52.503Z,5.70
2019-02-28T00:59:23.704Z,6.10
2019-02-28T01:01:54.248Z,6.70
2019-02-28T01:04:24.969Z,7.00
2019-02-28T01:06:55.879Z,7.50
2019-02-28T01:09:29.785Z,7.00
2019-02-28T01:11:59.171Z,6.80
2019-02-28T01:14:32.374Z,6.50
2019-02-28T01:17:02.083Z,6.70
2019-02-28T01:19:32.730Z,6.30
2019-02-28T01:22:03.279Z,6.50
2019-02-28T01:24:34.776Z,6.20
2019-02-28T01:27:06.626Z,6.10
2019-02-28T01:29:37.301Z,5.80
2019-02-28T01:32:07.830Z,5.40
2019-02-28T01:34:38.482Z,5.20
2019-02-28T01:37:09.079Z,5.20
2019-02-28T01:39:39.625Z,5.30
2019-02-28T01:42:10.231Z,5.10
2019-02-28T01:44:40.753Z,5.00
2019-02-28T01:47:11.437Z,4.90
2019-02-28T01:49:41.986Z,5.00
2019-02-28T01:52:12.651Z,5.00
2019-02-28T01:54:43.212Z,5.10
2019-02-28T01:57:14.121Z,5.10
2019-02-28T01:59:44.615Z,5.40
2019-02-28T02:02:15.214Z,5.60
2019-02-28T02:04:46.585Z,6.00
2019-02-28T02:07:17.577Z,5.70
2019-02-28T02:09:48.127Z,5.60
2019-02-28T02:12:18.731Z,5.60
2019-02-28T02:14:49.303Z,5.20
2019-02-28T02:17:19.899Z,5.30
2019-02-28T02:19:52.162Z,5.60
2019-02-28T02:22:22.793Z,6.60
2019-02-28T02:24:53.277Z,7.40
2019-02-28T02:27:23.946Z,8.00
2019-02-28T02:29:54.494Z,8.30
2019-02-28T02:32:25.156Z,8.50
2019-02-28T02:34:55.764Z,8.50
2019-02-28T02:37:30.126Z,8.70
2019-02-28T02:39:58.991Z,8.60
2019-02-28T02:42:29.586Z,8.60
2019-02-28T02:45:05.005Z,8.60
2019-02-28T02:47:32.608Z,8.40
2019-02-28T02:50:03.325Z,8.40
2019-02-28T02:52:33.963Z,8.30
2019-02-28T02:55:04.870Z,8.30
2019-02-28T02:57:35.740Z,8.10
2019-02-28T03:00:13.796Z,8.00
2019-02-28T03:02:42.482Z,8.10
2019-02-28T03:05:13.440Z,8.00
2019-02-28T03:07:44.003Z,7.80
2019-02-28T03:10:18.242Z,7.80
2019-02-28T03:12:48.135Z,7.70
2019-02-28T03:15:25.572Z,7.60
2019-02-28T03:17:51.348Z,7.70
2019-02-28T03:20:21.795Z,7.60
2019-02-28T03:22:53.187Z,7.50
2019-02-28T03:25:27.448Z,7.40
2019-02-28T03:27:56.799Z,7.40
2019-02-28T03:30:32.384Z,7.40
2019-02-28T03:32:59.931Z,7.30
2019-02-28T03:35:40.018Z,7.30
2019-02-28T03:38:10.380Z,7.20
2019-02-28T03:40:39.825Z,7.00
2019-02-28T03:43:07.689Z,7.00
2019-02-28T03:45:38.364Z,6.90
2019-02-28T03:48:08.938Z,6.90
2019-02-28T03:50:39.558Z,7.00
2019-02-28T03:53:10.095Z,7.00
2019-02-28T03:55:41.648Z,7.20
2019-02-28T03:58:12.338Z,7.20
2019-02-28T04:00:43.570Z,7.40
2019-02-28T04:03:14.035Z,7.40
2019-02-28T04:05:44.687Z,7.30
2019-02-28T04:08:15.889Z,7.50
2019-02-28T04:10:46.556Z,7.50
2019-02-28T04:13:19.205Z,7.50
2019-02-28T04:16:07.711Z,7.60
2019-02-28T04:18:21.929Z,7.60
2019-02-28T04:20:52.560Z,7.50
2019-02-28T04:23:23.360Z,7.70
2019-02-28T04:25:56.823Z,7.70
2019-02-28T04:28:26.246Z,7.70
2019-02-28T04:30:57.300Z,7.60
2019-02-28T04:33:27.851Z,7.80
2019-02-28T04:36:00.641Z,7.70
2019-02-28T04:38:30.845Z,7.70
2019-02-28T04:41:01.500Z,7.60
2019-02-28T04:43:32.030Z,7.50
2019-02-28T04:46:02.681Z,7.50
2019-02-28T04:48:33.216Z,7.40
2019-02-28T04:51:05.686Z,7.00
2019-02-28T04:53:36.091Z,7.10
2019-02-28T04:56:11.056Z,7.00
2019-02-28T04:58:38.979Z,7.00
2019-02-28T05:01:12.380Z,7.10
2019-02-28T05:03:42.265Z,7.20
2019-02-28T05:06:12.931Z,7.10
2019-02-28T05:08:43.473Z,7.00
2019-02-28T05:11:14.567Z,6.80
2019-02-28T05:13:48.369Z,7.30
2019-02-28T05:16:17.389Z,7.20
2019-02-28T05:18:48.027Z,7.10
2019-02-28T05:21:19.541Z,7.30
2019-02-28T05:23:50.960Z,7.30
2019-02-28T05:26:23.422Z,7.30
2019-02-28T05:28:54.100Z,6.90
2019-02-28T05:31:27.069Z,6.70
2019-02-28T05:33:57.038Z,7.00
2019-02-28T05:36:27.579Z,7.10
2019-02-28T05:38:58.133Z,7.20
2019-02-28T05:41:28.740Z,7.20
2019-02-28T05:43:59.290Z,7.40
2019-02-28T05:46:29.942Z,7.50
2019-02-28T05:49:00.830Z,7.50
2019-02-28T05:51:31.471Z,7.30
2019-02-28T05:54:02.008Z,7.30
2019-02-28T05:56:33.275Z,7.30
2019-02-28T05:59:04.653Z,7.30
2019-02-28T06:01:35.331Z,7.20
2019-02-28T06:04:06.254Z,7.20
2019-02-28T06:06:36.910Z,7.20
2019-02-28T06:09:10.332Z,7.20
2019-02-28T06:11:41.079Z,7.20
2019-02-28T06:14:11.751Z,7.10
2019-02-28T06:16:46.271Z,7.00
2019-02-28T06:19:14.556Z,7.10
2019-02-28T06:21:45.288Z,7.20
2019-02-28T06:24:16.105Z,7.20
2019-02-28T06:26:46.878Z,7.20
2019-02-28T06:29:17.414Z,7.10
2019-02-28T06:31:48.658Z,7.00
2019-02-28T06:34:20.050Z,7.10
2019-02-28T06:36:50.749Z,7.10
2019-02-28T06:39:21.323Z,7.10
2019-02-28T06:41:51.980Z,7.10
2019-02-28T06:44:24.264Z,7.10
2019-02-28T06:46:54.921Z,7.10
2019-02-28T06:49:25.924Z,7.20
2019-02-28T06:51:56.577Z,7.10
2019-02-28T06:54:27.150Z,7.20
2019-02-28T06:56:57.808Z,7.30
2019-02-28T06:59:28.407Z,7.40
2019-02-28T07:01:59.074Z,7.40
2019-02-28T07:04:29.649Z,7.50
2019-02-28T07:07:00.321Z,7.50
2019-02-28T07:09:33.637Z,7.50
2019-02-28T07:12:03.789Z,7.50
2019-02-28T07:14:34.489Z,7.50
2019-02-28T07:17:07.806Z,7.50
2019-02-28T07:19:37.630Z,7.50
2019-02-28T07:22:08.330Z,7.60
2019-02-28T07:24:38.867Z,7.60
2019-02-28T07:27:09.501Z,7.70
2019-02-28T07:29:42.759Z,7.70
2019-02-28T07:32:12.318Z,7.80
2019-02-28T07:34:43.006Z,7.80
2019-02-28T07:37:18.586Z,7.90
2019-02-28T07:39:45.749Z,7.90
2019-02-28T07:42:16.341Z,8.00
2019-02-28T07:44:46.893Z,8.10
2019-02-28T07:47:18.397Z,8.20
2019-02-28T07:49:50.250Z,8.30
2019-02-28T07:52:21.101Z,8.40
2019-02-28T07:54:55.501Z,8.50
2019-02-28T07:57:23.929Z,8.70
2019-02-28T07:59:54.550Z,8.80
2019-02-28T08:02:25.086Z,8.80
2019-02-28T08:04:55.868Z,8.90
2019-02-28T08:07:26.844Z,9.00
2019-02-28T08:09:58.142Z,9.10
2019-02-28T08:12:30.907Z,9.20
2019-02-28T08:15:01.181Z,9.30
2019-02-28T08:17:31.712Z,9.40
2019-02-28T08:20:02.379Z,9.50
2019-02-28T08:22:32.941Z,9.60
2019-02-28T08:25:03.620Z,9.60
2019-02-28T08:27:34.631Z,9.60
2019-02-28T08:30:06.115Z,9.70
2019-02-28T08:32:42.719Z,9.80
2019-02-28T08:35:09.936Z,9.80
2019-02-28T08:37:40.565Z,10.00
2019-02-28T08:40:16.798Z,10.00
2019-02-28T08:42:48.265Z,10.20
2019-02-28T08:45:19.671Z,10.20
2019-02-28T08:47:55.401Z,10.30
2019-02-28T08:50:23.564Z,10.40
2019-02-28T08:52:54.527Z,10.60
2019-02-28T08:55:28.887Z,10.60
2019-02-28T08:58:04.325Z,10.70
2019-02-28T09:00:32.573Z,10.90
2019-02-28T09:03:02.150Z,11.10
2019-02-28T09:05:32.753Z,11.10
2019-02-28T09:08:03.290Z,11.20
2019-02-28T09:10:33.940Z,11.30
2019-02-28T09:13:07.744Z,11.60
2019-02-28T09:15:36.808Z,11.50
2019-02-28T09:18:07.502Z,11.60
2019-02-28T09:20:38.094Z,11.80
2019-02-28T09:23:08.647Z,11.90
2019-02-28T09:25:39.264Z,11.70
2019-02-28T09:28:10.225Z,11.80
2019-02-28T09:30:42.629Z,12.00
2019-02-28T09:33:13.178Z,12.00
2019-02-28T09:35:46.261Z,12.10
2019-02-28T09:38:16.489Z,12.10
2019-02-28T09:40:47.160Z,12.10
2019-02-28T09:43:17.714Z,12.20
2019-02-28T09:45:48.411Z,12.20
2019-02-28T09:48:19.027Z,12.20
2019-02-28T09:50:49.940Z,12.10
2019-02-28T09:53:20.745Z,12.40
2019-02-28T09:55:51.311Z,12.40
2019-02-28T09:58:21.970Z,12.50
2019-02-28T10:00:52.535Z,12.50
2019-02-28T10:03:23.600Z,12.40
2019-02-28T10:05:54.149Z,12.70
2019-02-28T10:08:24.813Z,12.60
2019-02-28T10:10:55.852Z,12.90
2019-02-28T10:13:27.507Z,12.80
2019-02-28T10:15:58.088Z,12.80
2019-02-28T10:18:28.753Z,12.80
2019-02-28T10:21:01.884Z,13.00
2019-02-28T10:23:31.686Z,13.30
2019-02-28T10:26:02.244Z,13.50
2019-02-28T10:28:32.943Z,13.50
2019-02-28T10:31:03.527Z,13.60
2019-02-28T10:33:34.254Z,13.70
2019-02-28T10:36:04.833Z,13.30
2019-02-28T10:38:35.468Z,13.20
2019-02-28T10:41:06.039Z,13.40
2019-02-28T10:43:36.616Z,13.40
2019-02-28T10:46:07.276Z,13.40
2019-02-28T10:48:41.829Z,13.60
2019-02-28T10:51:14.052Z,13.80
2019-02-28T10:53:42.411Z,13.80
2019-02-28T10:56:13.743Z,14.00
2019-02-28T10:58:47.074Z,14.00
2019-02-28T11:01:17.921Z,14.30
2019-02-28T11:03:49.251Z,14.10
2019-02-28T11:06:20.270Z,14.10
2019-02-28T11:08:50.923Z,14.10
2019-02-28T11:11:21.455Z,14.40
2019-02-28T11:13:52.146Z,14.80
2019-02-28T11:16:23.653Z,14.90
2019-02-28T11:18:55.146Z,14.70
2019-02-28T11:21:26.063Z,14.80
2019-02-28T11:23:56.819Z,14.80
2019-02-28T11:26:28.024Z,15.50
2019-02-28T11:29:02.839Z,15.70
2019-02-28T11:31:30.981Z,15.80
2019-02-28T11:34:01.614Z,16.60
2019-02-28T11:36:34.182Z,17.00
2019-02-28T11:39:06.697Z,16.40
2019-02-28T11:41:37.455Z,15.90
2019-02-28T11:44:09.257Z,15.50
2019-02-28T11:46:40.622Z,15.70
2019-02-28T11:49:11.227Z,16.00
2019-02-28T11:51:41.757Z,15.80
2019-02-28T11:54:13.429Z,15.60
2019-02-28T11:56:44.405Z,15.40
2019-02-28T11:59:15.082Z,15.40
2019-02-28T12:01:47.444Z,15.40
2019-02-28T12:04:18.185Z,15.30
2019-02-28T12:06:50.310Z,15.40
2019-02-28T12:09:21.132Z,15.60
2019-02-28T12:11:51.669Z,16.10
2019-02-28T12:14:23.287Z,16.80
2019-02-28T12:16:53.855Z,16.50
2019-02-28T12:19:24.438Z,17.00
2019-02-28T12:21:55.085Z,16.90
2019-02-28T12:24:25.997Z,17.40
2019-02-28T12:26:57.767Z,17.60
2019-02-28T12:29:28.653Z,17.60
2019-02-28T12:31:59.700Z,17.60
2019-02-28T12:34:30.629Z,17.90
2019-02-28T12:37:01.898Z,17.60
2019-02-28T12:39:33.408Z,17.70
2019-02-28T12:42:04.802Z,16.70
2019-02-28T12:44:35.379Z,16.20
2019-02-28T12:47:07.271Z,16.50
2019-02-28T12:49:38.051Z,16.10
2019-02-28T12:52:11.328Z,15.70
2019-02-28T12:54:40.964Z,15.70
2019-02-28T12:57:11.597Z,15.50
2019-02-28T13:14:40.729Z,15.90
2019-02-28T13:17:11.834Z,16.60
2019-02-28T13:43:59.477Z,18.30
2019-02-28T13:46:32.208Z,18.50
2019-02-28T13:48:58.990Z,18.00
2019-02-28T13:51:29.052Z,18.10
2019-02-28T13:53:59.100Z,18.30
2019-02-28T13:56:33.167Z,18.70
2019-02-28T13:59:00.874Z,18.50
2019-02-28T14:01:30.927Z,18.50
2019-02-28T14:04:00.936Z,18.40
2019-02-28T14:06:30.922Z,18.50
2019-02-28T14:09:00.970Z,17.90
2019-02-28T14:11:31.303Z,18.20
2019-02-28T14:14:01.362Z,18.70
2019-02-28T14:16:31.425Z,19.30
2019-02-28T14:19:01.734Z,18.70
2019-02-28T14:21:34.395Z,18.10
2019-02-28T14:24:03.430Z,18.60
2019-02-28T14:26:42.393Z,18.80
2019-02-28T14:29:07.026Z,18.40
2019-02-28T14:31:36.930Z,18.40
2019-02-28T14:34:06.983Z,18.80
2019-02-28T14:36:37.049Z,18.60
2019-02-28T14:39:11.907Z,19.40
2019-02-28T14:41:42.158Z,19.30
2019-02-28T14:44:12.235Z,19.30
2019-02-28T14:46:42.391Z,19.30
2019-02-28T14:49:13.389Z,18.60
2019-02-28T14:51:43.696Z,18.40
2019-02-28T14:54:14.087Z,19.10
2019-02-28T14:56:44.083Z,19.20
2019-02-28T14:59:14.064Z,19.10
2019-02-28T15:01:44.134Z,19.30
2019-02-28T15:04:14.129Z,19.10
2019-02-28T15:06:44.191Z,19.30
2019-02-28T15:09:17.947Z,19.80
2019-02-28T15:11:48.389Z,19.00
2019-02-28T15:14:18.487Z,18.70
2019-02-28T15:16:48.487Z,18.90
2019-02-28T15:19:21.450Z,19.30
2019-02-28T15:21:50.458Z,20.00
2019-02-28T15:24:20.510Z,19.90
2019-02-28T15:26:50.499Z,19.10
2019-02-28T15:29:23.390Z,18.80
2019-02-28T15:31:52.774Z,18.60
2019-02-28T15:34:23.061Z,18.20
2019-02-28T15:36:55.570Z,18.60
2019-02-28T15:39:25.082Z,18.20
2019-02-28T15:41:55.076Z,17.50
2019-02-28T15:44:25.698Z,17.50
2019-02-28T15:46:56.786Z,17.70
2019-02-28T15:49:26.927Z,17.70
2019-02-28T15:51:56.996Z,17.20
2019-02-28T15:54:27.055Z,17.20
2019-02-28T15:56:57.184Z,17.10
2019-02-28T15:59:27.164Z,16.70
2019-02-28T16:01:57.304Z,16.40
2019-02-28T16:04:27.354Z,16.30
2019-02-28T16:06:58.263Z,16.10
2019-02-28T16:09:28.240Z,16.10
2019-02-28T16:11:58.296Z,16.00
2019-02-28T16:14:28.340Z,16.00
2019-02-28T16:17:00.359Z,15.90
2019-02-28T16:19:30.103Z,15.90
2019-02-28T16:22:00.377Z,15.90
2019-02-28T16:24:30.540Z,15.90
2019-02-28T16:27:00.971Z,15.80
2019-02-28T16:29:31.320Z,15.70
2019-02-28T16:32:01.472Z,15.60
2019-02-28T16:34:31.454Z,15.60
2019-02-28T16:37:01.964Z,15.50
2019-02-28T16:39:32.227Z,15.60
2019-02-28T16:42:02.204Z,15.50
2019-02-28T16:44:32.257Z,15.50
2019-02-28T16:47:02.965Z,15.50
2019-02-28T16:49:32.939Z,15.50
2019-02-28T16:52:05.995Z,15.40
2019-02-28T16:54:34.766Z,15.40
2019-02-28T16:57:05.078Z,15.30
2019-02-28T16:59:35.210Z,15.20
2019-02-28T17:02:05.410Z,15.10
2019-02-28T17:04:35.536Z,15.10
2019-02-28T17:07:06.410Z,15.00
2019-02-28T17:09:40.492Z,14.90
2019-02-28T17:12:29.589Z,14.90
2019-02-28T17:14:59.818Z,14.80
2019-02-28T17:17:43.445Z,14.80
2019-02-28T17:20:14.000Z,14.70
2019-02-28T17:22:43.969Z,14.70
2019-02-28T17:25:14.419Z,14.60
2019-02-28T17:27:55.682Z,14.60
2019-02-28T17:30:43.309Z,14.60
2019-02-28T17:33:13.281Z,14.50
2019-02-28T17:35:43.268Z,14.40
2019-02-28T17:38:13.247Z,14.40
2019-02-28T17:40:43.563Z,14.30
2019-02-28T17:43:13.604Z,14.30
2019-02-28T17:45:43.739Z,14.30
2019-02-28T17:49:26.430Z,14.20
2019-02-28T17:52:16.436Z,14.10
2019-02-28T17:55:31.094Z,14.00
2019-02-28T17:58:18.390Z,13.90
2019-02-28T18:01:43.707Z,13.80
2019-02-28T18:05:04.538Z,13.70
2019-02-28T18:08:04.870Z,13.50
2019-02-28T18:11:44.334Z,13.30
2019-02-28T18:14:46.363Z,13.10
2019-02-28T18:18:02.026Z,12.90
2019-02-28T18:21:06.394Z,12.70
2019-02-28T18:24:16.821Z,12.50
2019-02-28T18:27:14.711Z,12.30
2019-02-28T18:31:14.345Z,12.20
2019-02-28T18:33:52.328Z,11.90
2019-02-28T18:36:25.595Z,11.60
2019-02-28T18:38:55.648Z,11.40
2019-02-28T18:41:26.147Z,11.30
2019-02-28T18:43:56.493Z,11.20
2019-02-28T18:46:29.521Z,11.10
2019-02-28T18:48:58.607Z,11.00
2019-02-28T18:51:28.663Z,11.00
2019-02-28T18:53:58.728Z,11.00
2019-02-28T18:56:28.782Z,10.90
2019-02-28T18:58:58.840Z,10.80
2019-02-28T19:01:28.900Z,10.80
2019-02-28T19:03:58.985Z,10.70
2019-02-28T19:06:29.038Z,10.70
2019-02-28T19:08:59.040Z,10.70
2019-02-28T19:11:29.425Z,10.70
2019-02-28T19:13:59.422Z,10.70
2019-02-28T19:16:29.403Z,10.70
2019-02-28T19:18:59.396Z,10.70
2019-02-28T19:21:29.384Z,10.70
2019-02-28T19:23:59.703Z,10.70
2019-02-28T19:26:29.685Z,10.80
2019-02-28T19:28:59.940Z,10.80
2019-02-28T19:31:29.915Z,10.80
2019-02-28T19:33:59.977Z,10.80
2019-02-28T19:36:30.040Z,10.90
2019-02-28T19:39:00.261Z,10.90
2019-02-28T19:41:30.247Z,10.90
2019-02-28T19:44:00.251Z,10.90
2019-02-28T19:46:30.241Z,10.90
2019-02-28T19:49:00.283Z,10.90
2019-02-28T19:51:30.221Z,10.90
2019-02-28T19:54:00.471Z,10.90
2019-02-28T19:56:30.768Z,10.90
2019-02-28T19:59:00.763Z,10.90
2019-02-28T20:01:30.825Z,10.90
2019-02-28T20:04:00.897Z,10.90
2019-02-28T20:06:30.956Z,10.80
2019-02-28T20:09:00.957Z,10.80
2019-02-28T20:11:31.191Z,10.80
2019-02-28T20:14:01.530Z,10.70
2019-02-28T20:16:31.594Z,10.70
2019-02-28T20:19:01.739Z,10.70
2019-02-28T20:21:32.166Z,10.60
2019-02-28T20:24:02.579Z,10.60
2019-02-28T20:26:32.642Z,10.50
2019-02-28T20:29:02.643Z,10.50
2019-02-28T20:31:32.709Z,10.40
2019-02-28T20:34:02.794Z,10.30
2019-02-28T20:36:32.855Z,10.30
2019-02-28T20:39:02.922Z,10.20
2019-02-28T20:41:32.911Z,10.20
2019-02-28T20:44:02.976Z,10.20
2019-02-28T20:46:33.038Z,10.10
2019-02-28T20:49:03.449Z,10.00
2019-02-28T20:51:33.442Z,10.00
2019-02-28T20:54:03.799Z,10.00
2019-02-28T20:56:33.952Z,10.10
2019-02-28T20:59:04.076Z,10.10
2019-02-28T21:01:34.312Z,10.10
2019-02-28T21:04:04.818Z,10.10
2019-02-28T21:06:35.195Z,10.10
2019-02-28T21:09:07.860Z,10.10
2019-02-28T21:11:38.250Z,10.20
2019-02-28T21:14:08.311Z,10.10
2019-02-28T21:16:38.860Z,10.10
2019-02-28T21:19:08.893Z,10.10
2019-02-28T21:21:38.963Z,10.10
2019-02-28T21:24:09.625Z,10.10
2019-02-28T21:26:39.673Z,10.10
2019-02-28T21:29:10.024Z,10.00
2019-02-28T21:31:40.116Z,10.00
2019-02-28T21:34:10.406Z,10.00
2019-02-28T21:36:40.895Z,10.00
2019-02-28T21:39:11.842Z,10.00
2019-02-28T21:41:42.209Z,10.00
2019-02-28T21:44:12.668Z,10.10
2019-02-28T21:46:42.811Z,10.10
2019-02-28T21:49:13.304Z,10.10
2019-02-28T21:51:44.016Z,10.10
2019-02-28T21:54:14.069Z,10.00
2019-02-28T21:56:44.139Z,10.10
2019-02-28T21:59:14.457Z,10.10
2019-02-28T22:01:45.048Z,10.10
2019-02-28T22:04:15.128Z,10.00
2019-02-28T22:06:45.379Z,10.00
2019-02-28T22:09:15.434Z,10.10
2019-02-28T22:11:46.215Z,10.10
2019-02-28T22:14:16.178Z,10.10
2019-02-28T22:16:46.214Z,10.10
2019-02-28T22:19:16.567Z,10.10
2019-02-28T22:21:46.639Z,10.20
2019-02-28T22:24:16.759Z,10.10
2019-02-28T22:26:46.992Z,10.10
2019-02-28T22:29:17.047Z,10.10
2019-02-28T22:32:03.480Z,10.10
2019-02-28T22:34:41.985Z,10.10
2019-02-28T22:37:12.141Z,10.10
2019-02-28T22:39:42.404Z,10.10
2019-02-28T22:42:21.733Z,10.10
2019-02-28T22:44:44.611Z,10.10
2019-02-28T22:47:14.687Z,10.00
2019-02-28T22:49:44.774Z,10.10
2019-02-28T22:52:14.866Z,10.00
2019-02-28T22:54:44.838Z,10.00
2019-02-28T22:57:15.248Z,10.00
2019-02-28T22:59:45.251Z,10.00
2019-02-28T23:02:15.501Z,9.90
2019-02-28T23:04:45.556Z,9.90
2019-02-28T23:07:15.853Z,9.90
2019-02-28T23:09:46.268Z,9.90
2019-02-28T23:12:16.652Z,9.90
2019-02-28T23:14:46.637Z,9.90
2019-02-28T23:17:17.271Z,9.90
2019-02-28T23:19:47.328Z,9.90
2019-02-28T23:22:17.305Z,9.80
2019-02-28T23:24:47.344Z,9.80
2019-02-28T23:27:20.943Z,9.80
2019-02-28T23:30:21.400Z,9.70
2019-02-28T23:33:06.047Z,9.70
2019-02-28T23:35:42.488Z,9.70
2019-02-28T23:38:12.552Z,9.70
2019-02-28T23:40:42.632Z,9.70
2019-02-28T23:43:12.840Z,9.60
2019-02-28T23:45:42.893Z,9.50
2019-02-28T23:48:12.944Z,9.40
2019-02-28T23:50:42.928Z,9.30
2019-02-28T23:53:12.980Z,9.20
2019-02-28T23:55:43.033Z,9.20
2019-02-28T23:58:13.008Z,9.30
